Time;durP1;ratioP1;P1;durP2;ratioP2;P2;SDS_P1;SDS_P2;PMS_P1;PMS_P2;Temp;Humidity;BMP_temperature;BMP_pressure;BME280_temperature;BME280_humidity;BME280_pressure;Samples;Min_cycle;Max_cycle;Signal;HPM_P1;HPM_P2
2023/09/03 00:01:30;;;;;;;3.70;3.40;;;26.10;56.50;;;;;;5010522;28;20233;-49
2023/09/03 00:03:56;;;;;;;4.43;3.70;;;26.10;56.30;;;;;;5013560;28;20194;-47
2023/09/03 00:06:21;;;;;;;3.90;3.40;;;26.10;56.30;;;;;;4999778;28;20449;-47
2023/09/03 00:08:48;;;;;;;4.47;3.43;;;26.10;56.30;;;;;;5003270;28;20241;-47
2023/09/03 00:11:15;;;;;;;4.70;4.03;;;26.00;56.10;;;;;;5009074;28;20213;-50
2023/09/03 00:13:41;;;;;;;6.03;4.17;;;26.00;56.30;;;;;;5012016;28;20452;-47
2023/09/03 00:16:07;;;;;;;4.40;4.00;;;26.00;56.30;;;;;;5009637;28;20444;-48
2023/09/03 00:18:32;;;;;;;4.60;3.43;;;26.00;56.30;;;;;;5012921;28;20329;-47
2023/09/03 00:21:01;;;;;;;4.07;3.70;;;25.90;56.20;;;;;;5012341;28;20716;-47
2023/09/03 00:23:27;;;;;;;3.93;3.63;;;25.90;56.20;;;;;;5014272;28;20209;-46
2023/09/03 00:25:54;;;;;;;6.10;4.03;;;26.00;56.30;;;;;;5014166;28;20449;-49
2023/09/03 00:28:19;;;;;;;4.70;3.50;;;26.00;56.10;;;;;;5004587;28;20528;-47
2023/09/03 00:30:45;;;;;;;3.60;3.30;;;26.00;56.10;;;;;;5006776;28;20578;-47
2023/09/03 00:33:11;;;;;;;4.20;3.80;;;25.90;56.10;;;;;;5009233;28;20227;-46
2023/09/03 00:35:38;;;;;;;4.53;4.13;;;25.90;56.20;;;;;;5002217;28;20197;-48
2023/09/03 00:38:04;;;;;;;6.20;3.70;;;25.90;56.20;;;;;;5012779;28;20276;-46
2023/09/03 00:40:37;;;;;;;4.27;3.40;;;26.00;56.10;;;;;;5008169;28;20702;-47
2023/09/03 00:43:02;;;;;;;4.13;3.77;;;25.90;56.00;;;;;;5008224;28;20260;-46
2023/09/03 00:45:28;;;;;;;4.30;3.57;;;25.90;55.90;;;;;;5007540;28;20445;-47
2023/09/03 00:47:54;;;;;;;5.53;3.60;;;25.80;56.10;;;;;;5013212;28;20221;-50
2023/09/03 00:50:19;;;;;;;3.13;2.83;;;25.70;56.50;;;;;;5008539;28;20194;-51
2023/09/03 00:52:45;;;;;;;4.03;3.30;;;25.70;56.60;;;;;;5011621;28;20340;-47
2023/09/03 00:55:10;;;;;;;4.80;3.30;;;25.70;56.30;;;;;;5013763;28;20201;-49
2023/09/03 00:57:36;;;;;;;7.17;3.40;;;25.70;56.40;;;;;;5013426;28;20194;-47
2023/09/03 01:00:02;;;;;;;6.93;3.30;;;25.70;56.40;;;;;;5009774;28;20279;-47
2023/09/03 01:02:28;;;;;;;3.30;3.00;;;25.70;56.30;;;;;;5013031;28;20272;-50
2023/09/03 01:04:54;;;;;;;4.43;2.93;;;25.70;56.30;;;;;;5009371;28;20448;-47
2023/09/03 01:07:19;;;;;;;3.80;3.40;;;25.70;56.30;;;;;;5012251;28;20440;-47
2023/09/03 01:09:45;;;;;;;4.43;3.17;;;25.60;56.10;;;;;;5014242;28;20732;-51
2023/09/03 01:12:36;;;;;;;5.70;4.17;;;25.60;56.30;;;;;;5013318;28;20214;-49
2023/09/03 01:15:06;;;;;;;5.23;3.80;;;25.50;56.40;;;;;;5013320;28;20220;-47
2023/09/03 01:17:47;;;;;;;5.00;3.70;;;25.50;56.30;;;;;;5009723;28;20455;-46
2023/09/03 01:20:22;;;;;;;5.47;4.13;;;25.40;56.30;;;;;;5003514;28;20471;-47
2023/09/03 01:23:13;;;;;;;5.93;4.13;;;25.40;56.80;;;;;;5004570;28;20444;-47
2023/09/03 01:26:01;;;;;;;5.80;3.57;;;25.40;56.80;;;;;;5005930;28;20440;-51
2023/09/03 01:28:30;;;;;;;3.20;2.90;;;25.40;57.00;;;;;;5004749;28;20458;-50
2023/09/03 01:31:01;;;;;;;3.93;3.63;;;25.40;56.80;;;;;;4999969;28;22156;-50
2023/09/03 01:33:29;;;;;;;5.10;3.73;;;25.40;56.70;;;;;;5005489;28;20476;-46
2023/09/03 01:35:57;;;;;;;3.50;3.20;;;25.30;56.60;;;;;;5005704;28;20498;-47
2023/09/03 01:38:23;;;;;;;5.20;3.37;;;25.30;56.80;;;;;;5002838;28;20441;-47
2023/09/03 01:40:51;;;;;;;4.03;3.30;;;25.30;57.00;;;;;;5008572;28;20515;-48
2023/09/03 01:43:16;;;;;;;3.70;3.40;;;25.40;57.20;;;;;;5003922;28;20450;-49
2023/09/03 01:46:00;;;;;;;4.10;3.50;;;25.40;56.80;;;;;;5006776;28;20763;-47
2023/09/03 01:48:38;;;;;;;4.97;3.53;;;25.50;56.90;;;;;;5006909;28;20594;-47
2023/09/03 01:51:21;;;;;;;5.57;3.07;;;25.50;56.80;;;;;;5010533;28;20480;-47
2023/09/03 01:54:24;;;;;;;3.77;3.07;;;25.50;56.70;;;;;;5011417;28;20452;-50
2023/09/03 01:57:10;;;;;;;2.97;2.67;;;25.50;56.80;;;;;;4966408;28;20559;-48
2023/09/03 01:59:43;;;;;;;4.30;3.63;;;25.50;57.00;;;;;;5003376;28;20446;-50
2023/09/03 02:02:10;;;;;;;4.33;3.40;;;25.40;56.40;;;;;;5009719;28;20488;-50
2023/09/03 02:04:36;;;;;;;4.73;3.83;;;25.40;56.30;;;;;;5006947;28;20507;-50
2023/09/03 02:07:02;;;;;;;4.87;3.57;;;25.40;56.30;;;;;;5008792;28;20963;-47
2023/09/03 02:09:27;;;;;;;5.77;3.70;;;25.40;56.30;;;;;;5005722;28;20663;-47
2023/09/03 02:11:53;;;;;;;3.93;3.63;;;25.40;56.30;;;;;;5006481;28;20198;-47
2023/09/03 02:14:19;;;;;;;4.77;4.00;;;25.40;56.00;;;;;;5003670;28;20202;-46
2023/09/03 02:16:44;;;;;;;4.23;3.90;;;25.30;56.30;;;;;;5007575;28;20729;-46
2023/09/03 02:19:10;;;;;;;4.77;3.30;;;25.20;56.70;;;;;;5008069;28;20218;-48
2023/09/03 02:21:35;;;;;;;4.03;3.40;;;25.20;56.50;;;;;;4999153;28;20309;-46
2023/09/03 02:24:01;;;;;;;4.07;3.20;;;25.20;56.60;;;;;;5005805;28;20193;-47
2023/09/03 02:26:26;;;;;;;4.30;3.20;;;25.20;56.80;;;;;;5009695;28;20197;-49
2023/09/03 02:28:52;;;;;;;3.87;3.47;;;25.20;56.90;;;;;;5007251;28;20194;-49
2023/09/03 02:31:17;;;;;;;4.87;3.10;;;25.20;56.90;;;;;;5010817;28;20198;-48
2023/09/03 02:33:43;;;;;;;11.90;4.70;;;25.20;57.00;;;;;;5003030;28;20190;-46
2023/09/03 02:36:09;;;;;;;3.40;3.20;;;25.30;56.90;;;;;;5009965;28;20277;-49
2023/09/03 02:38:34;;;;;;;7.03;3.80;;;25.30;56.80;;;;;;5007556;28;20653;-47
2023/09/03 02:41:00;;;;;;;4.60;2.80;;;25.30;56.50;;;;;;5009734;28;20232;-50
2023/09/03 02:43:25;;;;;;;3.83;3.43;;;25.30;56.60;;;;;;5009442;28;20194;-50
2023/09/03 02:45:52;;;;;;;3.63;3.13;;;25.30;56.40;;;;;;5010553;28;20649;-51
2023/09/03 02:48:17;;;;;;;4.47;3.07;;;25.30;56.50;;;;;;5010378;28;20198;-48
2023/09/03 02:50:43;;;;;;;3.60;3.17;;;25.30;56.50;;;;;;5011998;28;20542;-50
2023/09/03 02:53:09;;;;;;;5.77;3.33;;;25.20;56.30;;;;;;5012525;28;20194;-50
2023/09/03 02:55:34;;;;;;;5.53;3.57;;;25.20;56.20;;;;;;5010484;28;20611;-49
2023/09/03 02:58:00;;;;;;;3.73;3.10;;;25.10;56.00;;;;;;5011542;28;20200;-51
2023/09/03 03:00:25;;;;;;;4.20;3.33;;;25.00;56.70;;;;;;5012776;28;20568;-49
2023/09/03 03:02:55;;;;;;;3.40;2.90;;;24.80;57.10;;;;;;5008489;28;20198;-49
2023/09/03 03:05:21;;;;;;;7.23;3.93;;;24.80;57.40;;;;;;5002535;28;20668;-50
2023/09/03 03:07:46;;;;;;;3.27;2.97;;;24.90;57.20;;;;;;5004287;28;20441;-49
2023/09/03 03:10:12;;;;;;;3.40;3.13;;;24.90;57.00;;;;;;5005910;28;20297;-51
2023/09/03 03:12:38;;;;;;;4.40;3.10;;;24.90;57.20;;;;;;5011021;28;20206;-49
2023/09/03 03:15:04;;;;;;;4.63;3.27;;;24.80;57.30;;;;;;5006483;28;20707;-49
2023/09/03 03:17:30;;;;;;;3.00;2.80;;;24.90;57.30;;;;;;5003399;28;20264;-51
2023/09/03 03:19:55;;;;;;;3.57;2.60;;;24.90;57.00;;;;;;5009072;28;20445;-50
2023/09/03 03:22:21;;;;;;;3.33;3.03;;;24.90;56.90;;;;;;5009296;28;20587;-49
2023/09/03 03:24:47;;;;;;;3.73;3.37;;;24.90;56.90;;;;;;5005760;28;20190;-51
2023/09/03 03:27:13;;;;;;;4.30;2.77;;;24.90;56.80;;;;;;5010687;28;20272;-48
2023/09/03 03:29:39;;;;;;;3.13;2.83;;;24.90;56.70;;;;;;5009851;28;20190;-48
2023/09/03 03:32:07;;;;;;;3.90;2.90;;;24.80;56.40;;;;;;5010619;28;20440;-50
2023/09/03 03:34:32;;;;;;;3.47;3.17;;;24.80;56.60;;;;;;5008328;28;20198;-47
2023/09/03 03:36:58;;;;;;;4.30;3.90;;;24.80;56.70;;;;;;4999993;28;20441;-51
2023/09/03 03:39:24;;;;;;;2.70;2.50;;;24.80;56.40;;;;;;5000313;28;20545;-51
2023/09/03 03:41:49;;;;;;;3.87;3.10;;;24.70;56.20;;;;;;5010892;28;20320;-49
2023/09/03 03:44:15;;;;;;;3.50;3.20;;;24.70;56.40;;;;;;5008110;28;20276;-47
2023/09/03 03:46:40;;;;;;;4.07;3.03;;;24.70;56.50;;;;;;5009066;28;20209;-49
2023/09/03 03:49:06;;;;;;;3.57;3.27;;;24.60;56.60;;;;;;5004594;28;20194;-51
2023/09/03 03:51:31;;;;;;;6.23;2.40;;;24.60;56.70;;;;;;5011164;28;20650;-51
2023/09/03 03:54:03;;;;;;;8.33;3.03;;;24.60;57.20;;;;;;5008626;28;20222;-50
2023/09/03 03:56:29;;;;;;;5.07;3.00;;;24.70;57.10;;;;;;5008104;28;20186;-47
2023/09/03 03:58:54;;;;;;;3.97;2.67;;;24.70;57.00;;;;;;5005250;28;20448;-48
2023/09/03 04:01:24;;;;;;;2.57;2.37;;;24.70;57.00;;;;;;5007394;28;20229;-49
2023/09/03 04:03:52;;;;;;;3.50;2.90;;;24.70;57.00;;;;;;5002373;28;20283;-51
2023/09/03 04:06:18;;;;;;;4.40;3.20;;;24.70;56.90;;;;;;5005144;28;20460;-51
2023/09/03 04:08:45;;;;;;;4.40;3.10;;;24.70;56.70;;;;;;4997172;28;20433;-50
2023/09/03 04:11:12;;;;;;;5.50;2.90;;;24.60;56.40;;;;;;5006884;28;20936;-49
2023/09/03 04:13:39;;;;;;;4.20;3.17;;;24.50;56.80;;;;;;5000589;28;20445;-48
2023/09/03 04:16:15;;;;;;;2.83;2.63;;;24.50;57.00;;;;;;5009021;28;21036;-50
2023/09/03 04:18:42;;;;;;;2.67;2.43;;;24.50;57.60;;;;;;5005450;28;20527;-49
2023/09/03 04:21:07;;;;;;;3.40;2.70;;;24.60;57.50;;;;;;5004170;28;20960;-50
2023/09/03 04:23:33;;;;;;;3.10;2.80;;;24.60;57.30;;;;;;5008245;28;20563;-49
2023/09/03 04:25:59;;;;;;;5.70;4.20;;;24.70;57.10;;;;;;5004484;28;20190;-48
2023/09/03 04:28:25;;;;;;;4.43;3.10;;;24.70;56.70;;;;;;5007890;28;20646;-46
2023/09/03 04:30:55;;;;;;;3.63;3.10;;;24.60;56.80;;;;;;5011663;28;20674;-48
2023/09/03 04:33:21;;;;;;;5.53;2.90;;;24.60;57.20;;;;;;5012517;28;20562;-48
2023/09/03 04:35:47;;;;;;;3.93;3.43;;;24.60;57.10;;;;;;5011311;28;20480;-50
2023/09/03 04:38:12;;;;;;;3.33;2.97;;;24.50;56.90;;;;;;5009698;28;20201;-47
2023/09/03 04:40:38;;;;;;;4.50;3.00;;;24.50;56.90;;;;;;5011428;28;20305;-50
2023/09/03 04:43:05;;;;;;;4.70;3.20;;;24.50;57.30;;;;;;5010468;28;20313;-50
2023/09/03 04:45:31;;;;;;;4.97;2.90;;;24.00;58.00;;;;;;5011781;28;20247;-46
2023/09/03 04:47:58;;;;;;;6.10;3.20;;;23.90;58.90;;;;;;5013977;28;20936;-50
2023/09/03 04:50:25;;;;;;;4.93;3.30;;;24.00;58.80;;;;;;5012799;28;20441;-46
2023/09/03 04:52:54;;;;;;;3.60;3.20;;;23.80;58.50;;;;;;5013574;28;20955;-49
2023/09/03 04:55:19;;;;;;;3.47;3.17;;;23.80;59.00;;;;;;5011132;28;20448;-50
2023/09/03 04:57:45;;;;;;;4.40;3.33;;;23.90;58.70;;;;;;5012589;28;20441;-50
2023/09/03 05:00:11;;;;;;;4.83;3.20;;;24.00;58.50;;;;;;5004730;28;20221;-46
2023/09/03 05:02:36;;;;;;;3.40;3.10;;;24.10;58.30;;;;;;5012604;28;20253;-50
2023/09/03 05:05:02;;;;;;;3.00;2.70;;;24.10;58.20;;;;;;5001228;28;20926;-48
2023/09/03 05:07:28;;;;;;;3.87;3.13;;;24.20;58.20;;;;;;5012604;28;20198;-52
2023/09/03 05:09:55;;;;;;;3.20;2.87;;;24.30;58.10;;;;;;5009882;28;20199;-51
2023/09/03 05:12:21;;;;;;;3.80;3.50;;;24.40;57.80;;;;;;5010121;28;20441;-47
2023/09/03 05:14:47;;;;;;;5.30;3.33;;;24.40;57.70;;;;;;5013465;28;20448;-51
2023/09/03 05:17:13;;;;;;;3.90;2.90;;;24.50;57.40;;;;;;5011090;28;20452;-51
2023/09/03 05:19:39;;;;;;;3.30;3.00;;;24.50;57.40;;;;;;5008450;28;20194;-48
2023/09/03 05:22:06;;;;;;;3.37;2.53;;;24.50;57.30;;;;;;5004231;28;20586;-51
2023/09/03 05:24:32;;;;;;;3.27;3.00;;;24.40;57.10;;;;;;5008518;28;20444;-47
2023/09/03 05:26:58;;;;;;;3.93;3.17;;;24.30;57.30;;;;;;5010158;28;20433;-50
2023/09/03 05:29:24;;;;;;;3.13;2.87;;;24.30;57.60;;;;;;5005804;28;20229;-49
2023/09/03 05:31:50;;;;;;;2.73;2.53;;;24.30;58.00;;;;;;5010413;28;20241;-46
2023/09/03 05:34:15;;;;;;;4.00;3.60;;;24.20;58.50;;;;;;5006958;28;20440;-50
2023/09/03 05:36:41;;;;;;;3.83;2.53;;;24.30;58.30;;;;;;5004556;28;20632;-50
2023/09/03 05:39:06;;;;;;;3.70;2.90;;;24.30;58.40;;;;;;5003655;28;20202;-51
2023/09/03 05:41:32;;;;;;;4.20;3.30;;;24.30;58.60;;;;;;5002153;28;20256;-48
2023/09/03 05:43:57;;;;;;;4.43;3.33;;;24.40;58.40;;;;;;5010088;28;20202;-47
2023/09/03 05:46:24;;;;;;;4.30;3.60;;;24.40;58.30;;;;;;5005316;28;20189;-50
2023/09/03 05:48:52;;;;;;;4.83;3.00;;;24.50;58.40;;;;;;5010077;28;20202;-47
2023/09/03 05:51:18;;;;;;;7.43;3.60;;;24.50;58.40;;;;;;5009618;28;20486;-47
2023/09/03 05:53:44;;;;;;;3.57;3.07;;;24.60;58.80;;;;;;5007037;28;20433;-48
2023/09/03 05:56:11;;;;;;;3.57;2.93;;;24.60;58.00;;;;;;5002898;28;22009;-47
2023/09/03 05:58:38;;;;;;;5.13;2.90;;;24.00;58.80;;;;;;5008165;28;20285;-47
2023/09/03 06:01:08;;;;;;;3.80;2.90;;;23.80;60.00;;;;;;5003782;28;20531;-45
2023/09/03 06:03:34;;;;;;;2.77;2.40;;;24.00;59.90;;;;;;4992257;28;20453;-48
2023/09/03 06:06:07;;;;;;;3.40;3.10;;;24.10;59.40;;;;;;4997835;28;21066;-46
2023/09/03 06:08:35;;;;;;;5.20;3.10;;;24.30;59.00;;;;;;5002627;28;20536;-46
2023/09/03 06:11:01;;;;;;;4.60;3.07;;;24.50;58.80;;;;;;5010588;28;20488;-47
2023/09/03 06:13:27;;;;;;;3.10;2.60;;;24.50;58.40;;;;;;5008028;28;20936;-47
2023/09/03 06:15:57;;;;;;;3.63;3.30;;;24.70;58.30;;;;;;5010955;28;20555;-46
2023/09/03 06:18:24;;;;;;;3.67;3.27;;;24.80;58.20;;;;;;5012265;28;20448;-48
2023/09/03 06:20:50;;;;;;;4.60;2.70;;;24.80;57.90;;;;;;5005871;28;20489;-47
2023/09/03 06:23:18;;;;;;;3.57;3.10;;;24.90;57.80;;;;;;5007216;28;20441;-47
2023/09/03 06:25:48;;;;;;;3.93;3.63;;;24.80;57.90;;;;;;5004473;28;21034;-49
2023/09/03 06:28:13;;;;;;;5.40;3.23;;;24.80;58.20;;;;;;5009504;28;20459;-47
2023/09/03 06:30:39;;;;;;;5.50;3.70;;;24.90;58.30;;;;;;5006056;28;20532;-47
2023/09/03 06:33:05;;;;;;;3.60;3.30;;;24.90;58.40;;;;;;5006916;28;20205;-50
2023/09/03 06:35:31;;;;;;;5.60;3.13;;;24.80;58.50;;;;;;5006531;28;20801;-47
2023/09/03 06:37:57;;;;;;;5.37;3.37;;;24.80;58.90;;;;;;5010158;28;20277;-49
2023/09/03 06:40:23;;;;;;;3.50;3.20;;;24.80;58.80;;;;;;5007502;28;20200;-47
2023/09/03 06:42:49;;;;;;;3.10;2.80;;;24.80;58.80;;;;;;5004627;28;20449;-50
2023/09/03 06:45:14;;;;;;;6.40;3.87;;;24.90;58.90;;;;;;5006793;28;20539;-47
2023/09/03 06:47:40;;;;;;;4.00;3.60;;;24.90;58.90;;;;;;5007864;28;20537;-46
2023/09/03 06:50:07;;;;;;;3.60;3.30;;;25.00;59.00;;;;;;5008858;28;20348;-47
2023/09/03 06:52:34;;;;;;;5.87;3.80;;;25.00;59.10;;;;;;5009791;28;20237;-49
2023/09/03 06:55:01;;;;;;;4.67;3.30;;;25.00;59.30;;;;;;5007139;28;20452;-46
2023/09/03 06:57:26;;;;;;;4.00;3.40;;;25.00;59.30;;;;;;5002077;28;20463;-45
2023/09/03 06:59:52;;;;;;;3.67;3.30;;;24.90;59.70;;;;;;5007397;28;20437;-47
2023/09/03 07:02:17;;;;;;;3.70;3.10;;;25.00;59.70;;;;;;5002775;28;20230;-47
2023/09/03 07:04:43;;;;;;;5.00;2.97;;;25.10;59.50;;;;;;5002768;28;20202;-51
2023/09/03 07:07:09;;;;;;;4.77;4.00;;;25.20;59.10;;;;;;4999470;28;20189;-48
2023/09/03 07:09:35;;;;;;;3.50;3.20;;;25.10;59.30;;;;;;5006286;28;20664;-47
2023/09/03 07:12:01;;;;;;;4.80;2.73;;;25.00;59.10;;;;;;5002435;28;20200;-47
2023/09/03 07:14:29;;;;;;;3.83;3.50;;;25.10;59.10;;;;;;5004141;28;20194;-49
2023/09/03 07:16:55;;;;;;;3.23;3.03;;;25.20;59.10;;;;;;5004520;28;20552;-47
2023/09/03 07:19:22;;;;;;;4.20;3.63;;;25.30;58.80;;;;;;5008735;28;20539;-45
2023/09/03 07:21:48;;;;;;;6.60;3.50;;;25.40;58.50;;;;;;5005623;28;20647;-45
2023/09/03 07:24:14;;;;;;;6.40;2.83;;;25.50;58.30;;;;;;5010638;28;20512;-45
2023/09/03 07:26:39;;;;;;;3.80;2.57;;;25.50;58.10;;;;;;5011594;28;20193;-48
2023/09/03 07:29:05;;;;;;;8.83;2.93;;;25.50;58.30;;;;;;5005885;28;20504;-45
2023/09/03 07:31:31;;;;;;;4.20;2.70;;;25.60;58.20;;;;;;4998140;28;20267;-45
2023/09/03 07:33:59;;;;;;;3.80;2.70;;;25.70;57.80;;;;;;5007166;28;20280;-45
2023/09/03 07:36:25;;;;;;;4.30;2.70;;;25.80;57.60;;;;;;5003389;28;20701;-46
2023/09/03 07:38:50;;;;;;;3.07;2.77;;;25.90;57.30;;;;;;5011476;28;20528;-45
2023/09/03 07:41:16;;;;;;;6.93;3.20;;;26.00;57.10;;;;;;5012177;28;20229;-45
2023/09/03 07:43:42;;;;;;;5.63;3.17;;;26.10;56.90;;;;;;5005872;28;20202;-45
2023/09/03 07:46:07;;;;;;;7.33;3.53;;;26.20;56.70;;;;;;5009438;28;20193;-45
2023/09/03 07:48:34;;;;;;;4.37;3.23;;;26.30;56.50;;;;;;5011508;28;20432;-44
2023/09/03 07:50:59;;;;;;;4.17;2.93;;;26.40;56.30;;;;;;5011913;28;20332;-45
2023/09/03 07:53:25;;;;;;;3.00;2.70;;;26.40;56.10;;;;;;5011867;28;20869;-45
2023/09/03 07:55:51;;;;;;;3.80;2.77;;;26.50;56.00;;;;;;5011358;28;20213;-45
2023/09/03 07:58:16;;;;;;;3.20;2.90;;;26.70;55.90;;;;;;5007921;28;20190;-46
2023/09/03 08:00:42;;;;;;;3.57;3.27;;;26.70;55.60;;;;;;5013351;28;20645;-45
2023/09/03 08:03:08;;;;;;;3.07;2.80;;;26.80;55.60;;;;;;5014709;28;20193;-45
2023/09/03 08:05:33;;;;;;;4.30;2.90;;;26.80;55.60;;;;;;5016194;28;20241;-47
2023/09/03 08:07:59;;;;;;;3.50;3.20;;;26.90;55.40;;;;;;5012460;28;20668;-47
2023/09/03 08:10:25;;;;;;;5.07;3.30;;;26.90;55.40;;;;;;5015778;28;20263;-45
2023/09/03 08:12:50;;;;;;;3.20;2.90;;;27.00;55.40;;;;;;5014401;28;20198;-45
2023/09/03 08:15:16;;;;;;;3.80;2.87;;;27.10;55.10;;;;;;4995965;28;20320;-47
2023/09/03 08:17:42;;;;;;;5.80;2.87;;;27.20;54.90;;;;;;5015001;28;20190;-46
2023/09/03 08:20:08;;;;;;;3.70;3.33;;;27.20;54.70;;;;;;5015532;28;20198;-44
2023/09/03 08:22:35;;;;;;;4.33;3.47;;;27.30;54.90;;;;;;5013860;28;20776;-46
2023/09/03 08:25:01;;;;;;;4.70;3.70;;;27.30;55.00;;;;;;5013774;28;20503;-45
2023/09/03 08:27:26;;;;;;;5.20;4.30;;;27.40;55.00;;;;;;5013053;28;20873;-45
2023/09/03 08:29:52;;;;;;;4.10;3.70;;;27.40;55.30;;;;;;5015403;28;20609;-48
2023/09/03 08:32:18;;;;;;;4.83;4.00;;;27.40;55.30;;;;;;5014221;28;20207;-46
2023/09/03 08:34:43;;;;;;;3.00;2.80;;;27.40;55.40;;;;;;5015404;28;20268;-47
2023/09/03 08:37:09;;;;;;;2.97;2.67;;;27.30;55.90;;;;;;5013235;28;20664;-48
2023/09/03 08:39:34;;;;;;;4.17;3.40;;;27.40;55.40;;;;;;5015407;28;20201;-45
2023/09/03 08:42:00;;;;;;;4.83;3.50;;;27.50;55.10;;;;;;5013723;28;20312;-47
2023/09/03 08:44:32;;;;;;;3.63;3.43;;;27.40;55.60;;;;;;5008469;28;20198;-45
2023/09/03 08:46:59;;;;;;;3.97;3.67;;;27.60;55.70;;;;;;5000233;28;20548;-46
2023/09/03 08:49:29;;;;;;;3.40;3.10;;;27.70;55.30;;;;;;5014792;28;20432;-46
2023/09/03 08:51:59;;;;;;;6.20;4.43;;;27.90;54.90;;;;;;5004741;28;20499;-47
2023/09/03 08:54:26;;;;;;;4.23;3.83;;;28.00;54.70;;;;;;5008848;28;20499;-45
2023/09/03 08:56:52;;;;;;;4.83;4.07;;;28.00;54.70;;;;;;5011219;28;20441;-46
2023/09/03 08:59:17;;;;;;;4.60;4.20;;;28.10;54.50;;;;;;5011901;28;20456;-47
2023/09/03 09:01:50;;;;;;;4.40;4.00;;;27.90;54.90;;;;;;5010766;28;20767;-46
2023/09/03 09:04:17;;;;;;;3.80;3.50;;;28.10;54.90;;;;;;5010598;28;20194;-47
2023/09/03 09:06:43;;;;;;;4.40;4.00;;;28.30;54.90;;;;;;5004268;28;20653;-44
2023/09/03 09:09:10;;;;;;;5.50;3.83;;;28.40;54.80;;;;;;5008356;28;20989;-45
2023/09/03 09:11:44;;;;;;;5.80;3.60;;;28.50;54.90;;;;;;4996504;28;20576;-46
2023/09/03 09:14:30;;;;;;;4.27;3.97;;;28.60;55.10;;;;;;5009553;28;20851;-47
2023/09/03 09:16:56;;;;;;;4.33;4.03;;;28.70;54.70;;;;;;5006457;28;20809;-46
2023/09/03 09:19:21;;;;;;;4.83;3.67;;;28.80;54.60;;;;;;5002472;28;20445;-47
2023/09/03 09:21:47;;;;;;;4.63;4.30;;;28.80;55.00;;;;;;5003322;28;20218;-47
2023/09/03 09:24:12;;;;;;;7.40;4.57;;;28.90;55.30;;;;;;5009587;28;20225;-48
2023/09/03 09:26:41;;;;;;;6.53;4.10;;;28.90;54.10;;;;;;5012938;28;20229;-44
2023/09/03 09:29:06;;;;;;;4.50;4.10;;;28.90;54.30;;;;;;5007395;28;20273;-45
2023/09/03 09:31:35;;;;;;;7.70;4.70;;;28.80;54.90;;;;;;5007682;28;20531;-44
2023/09/03 09:34:14;;;;;;;5.47;4.10;;;28.80;54.80;;;;;;5014373;28;20190;-47
2023/09/03 09:36:54;;;;;;;5.40;4.70;;;28.90;54.40;;;;;;5011421;28;20538;-46
2023/09/03 09:39:19;;;;;;;4.50;3.90;;;28.90;55.10;;;;;;5005605;28;20444;-46
2023/09/03 09:41:45;;;;;;;4.47;3.97;;;29.00;54.60;;;;;;5001847;28;21172;-48
2023/09/03 09:44:11;;;;;;;4.27;3.97;;;29.20;54.70;;;;;;5001827;28;20247;-46
2023/09/03 09:46:39;;;;;;;5.00;4.50;;;29.40;53.90;;;;;;5003383;28;20836;-46
2023/09/03 09:49:06;;;;;;;9.00;4.37;;;29.50;53.40;;;;;;4985433;28;20248;-46
2023/09/03 09:51:32;;;;;;;3.90;3.60;;;29.50;52.90;;;;;;5001330;28;20495;-47
2023/09/03 09:54:00;;;;;;;3.43;3.17;;;29.60;52.80;;;;;;5006558;28;20445;-46
2023/09/03 09:56:30;;;;;;;3.47;3.13;;;29.70;52.40;;;;;;5011552;28;20440;-47
2023/09/03 09:58:59;;;;;;;4.37;3.93;;;29.80;52.30;;;;;;5011049;28;20445;-45
2023/09/03 10:01:27;;;;;;;3.90;3.60;;;29.90;51.90;;;;;;5002830;28;20488;-47
2023/09/03 10:03:53;;;;;;;3.40;3.20;;;30.00;51.60;;;;;;5008928;28;20444;-46
2023/09/03 10:06:21;;;;;;;3.37;3.07;;;30.00;51.70;;;;;;5011965;28;20797;-46
2023/09/03 10:08:49;;;;;;;3.60;3.30;;;30.20;51.70;;;;;;5010207;28;20456;-46
2023/09/03 10:11:15;;;;;;;3.30;3.00;;;30.30;51.30;;;;;;5010165;28;20449;-47
2023/09/03 10:13:41;;;;;;;4.10;3.70;;;30.30;50.60;;;;;;5009224;28;20445;-47
2023/09/03 10:16:09;;;;;;;4.40;3.40;;;30.30;50.50;;;;;;5011967;28;20579;-46
2023/09/03 10:18:49;;;;;;;2.90;2.70;;;30.20;50.10;;;;;;5007805;28;20514;-45
2023/09/03 10:21:21;;;;;;;3.60;3.30;;;30.20;49.90;;;;;;5012047;28;20901;-46
2023/09/03 10:23:49;;;;;;;3.10;2.90;;;30.30;49.30;;;;;;5011960;28;20426;-47
2023/09/03 10:26:37;;;;;;;3.20;2.90;;;30.50;50.00;;;;;;5009873;28;20939;-46
2023/09/03 10:29:07;;;;;;;3.53;2.77;;;30.60;49.90;;;;;;5000551;28;20867;-45
2023/09/03 10:31:35;;;;;;;2.63;2.43;;;30.60;48.50;;;;;;5010622;28;20440;-46
2023/09/03 10:34:00;;;;;;;4.70;2.63;;;30.70;49.30;;;;;;5010923;28;20451;-46
2023/09/03 10:36:26;;;;;;;3.37;2.60;;;31.00;48.60;;;;;;5007767;28;20449;-47
2023/09/03 10:38:51;;;;;;;3.47;2.30;;;31.10;48.80;;;;;;5005073;28;20198;-45
2023/09/03 10:41:18;;;;;;;4.47;2.60;;;31.20;47.60;;;;;;5007135;28;20276;-45
2023/09/03 10:43:47;;;;;;;2.30;2.20;;;31.40;47.60;;;;;;5000373;28;20201;-47
2023/09/03 10:46:13;;;;;;;2.20;2.00;;;31.60;46.90;;;;;;5006236;28;20472;-49
2023/09/03 10:48:39;;;;;;;2.80;1.80;;;31.80;45.50;;;;;;5005338;28;20453;-49
2023/09/03 10:51:05;;;;;;;2.20;1.67;;;31.90;45.30;;;;;;5008152;28;20492;-46
2023/09/03 10:53:40;;;;;;;2.20;1.87;;;31.90;45.60;;;;;;5008134;28;20223;-48
2023/09/03 10:56:17;;;;;;;1.83;1.40;;;32.10;44.80;;;;;;5006907;28;20448;-47
2023/09/03 10:58:59;;;;;;;2.47;1.70;;;32.20;44.40;;;;;;5008257;28;20948;-49
2023/09/03 11:01:33;;;;;;;1.60;1.50;;;32.20;43.90;;;;;;5003986;28;20484;-48
2023/09/03 11:04:03;;;;;;;1.70;1.60;;;32.20;44.00;;;;;;5008467;28;20666;-48
2023/09/03 11:06:33;;;;;;;1.70;1.60;;;32.40;45.20;;;;;;5010802;28;20452;-48
2023/09/03 11:08:59;;;;;;;2.00;1.77;;;32.50;45.50;;;;;;5009228;28;20500;-48
2023/09/03 11:11:33;;;;;;;2.80;2.13;;;32.60;45.40;;;;;;5011263;28;20481;-45
2023/09/03 11:13:59;;;;;;;1.90;1.80;;;32.80;44.60;;;;;;5010819;28;20272;-49
2023/09/03 11:16:35;;;;;;;1.70;1.60;;;32.80;43.70;;;;;;5007172;28;20462;-48
2023/09/03 11:19:07;;;;;;;3.30;1.60;;;32.90;43.90;;;;;;5009062;28;20967;-46
2023/09/03 11:21:34;;;;;;;2.13;1.90;;;32.90;44.00;;;;;;5006624;28;20492;-49
2023/09/03 11:24:08;;;;;;;1.60;1.50;;;32.90;44.10;;;;;;5007699;28;20432;-48
2023/09/03 11:26:35;;;;;;;2.27;2.00;;;33.00;44.30;;;;;;5000675;28;20526;-48
2023/09/03 11:29:02;;;;;;;1.80;1.70;;;33.10;45.10;;;;;;5006772;28;20805;-45
2023/09/03 11:31:28;;;;;;;2.87;1.93;;;33.30;43.70;;;;;;5006543;28;20992;-47
2023/09/03 11:33:55;;;;;;;2.93;2.20;;;33.40;43.50;;;;;;5007303;28;20452;-49
2023/09/03 11:36:24;;;;;;;4.67;1.90;;;33.50;42.90;;;;;;5012069;28;20532;-49
2023/09/03 11:38:55;;;;;;;2.67;1.90;;;33.40;43.20;;;;;;5016313;28;20429;-48
2023/09/03 11:41:21;;;;;;;1.93;1.70;;;33.40;43.40;;;;;;5015180;28;20511;-48
2023/09/03 11:43:47;;;;;;;1.70;1.60;;;33.40;43.40;;;;;;5014300;28;20530;-48
2023/09/03 11:46:17;;;;;;;1.87;1.73;;;33.50;43.10;;;;;;5013986;28;20523;-49
2023/09/03 11:48:51;;;;;;;1.77;1.67;;;33.60;43.50;;;;;;5014420;28;20453;-48
2023/09/03 11:51:24;;;;;;;2.87;2.30;;;33.70;43.90;;;;;;5015125;28;20485;-46
2023/09/03 11:53:50;;;;;;;2.20;1.80;;;33.70;42.60;;;;;;5013771;28;20554;-50
2023/09/03 11:56:18;;;;;;;1.90;1.80;;;33.60;42.00;;;;;;5011807;28;20436;-44
2023/09/03 11:58:46;;;;;;;2.23;1.77;;;33.70;43.20;;;;;;5010887;28;20280;-45
2023/09/03 12:01:14;;;;;;;2.33;2.13;;;33.80;42.80;;;;;;5011338;28;20508;-47
2023/09/03 12:03:40;;;;;;;2.30;2.10;;;33.90;41.30;;;;;;5011955;28;20423;-46
2023/09/03 12:06:06;;;;;;;2.27;2.00;;;33.90;41.50;;;;;;4992691;28;20452;-47
2023/09/03 12:08:34;;;;;;;3.63;1.80;;;33.90;42.20;;;;;;5008091;28;20502;-47
2023/09/03 12:11:00;;;;;;;1.83;1.73;;;34.00;43.10;;;;;;5007993;28;20642;-47
2023/09/03 12:13:32;;;;;;;2.00;1.63;;;34.00;41.00;;;;;;5003823;28;20448;-47
2023/09/03 12:16:09;;;;;;;1.70;1.60;;;33.90;41.40;;;;;;5013374;28;20285;-47
2023/09/03 12:18:36;;;;;;;2.60;2.03;;;33.90;42.10;;;;;;5007391;28;20801;-47
2023/09/03 12:21:03;;;;;;;1.90;1.70;;;34.00;42.30;;;;;;5012660;28;20468;-46
2023/09/03 12:23:29;;;;;;;1.97;1.87;;;34.10;42.30;;;;;;5013988;28;20480;-49
2023/09/03 12:25:54;;;;;;;3.37;1.80;;;34.20;41.40;;;;;;5014006;28;20475;-51
2023/09/03 12:28:36;;;;;;;2.27;1.90;;;34.30;40.70;;;;;;5012768;28;20198;-46
2023/09/03 12:31:04;;;;;;;2.13;2.03;;;34.30;41.00;;;;;;5014234;28;20220;-47
2023/09/03 12:33:33;;;;;;;1.83;1.40;;;34.40;40.90;;;;;;5013070;28;20523;-48
2023/09/03 12:36:11;;;;;;;1.97;1.87;;;34.40;40.00;;;;;;5004533;28;20460;-50
2023/09/03 12:38:49;;;;;;;1.60;1.50;;;34.20;39.80;;;;;;5008234;28;20484;-50
2023/09/03 12:41:15;;;;;;;1.70;1.60;;;34.50;40.80;;;;;;5008509;28;20480;-47
2023/09/03 12:43:41;;;;;;;1.67;1.57;;;34.60;40.30;;;;;;5006427;28;20823;-46
2023/09/03 12:46:08;;;;;;;2.07;1.97;;;34.80;40.20;;;;;;5011724;28;20198;-47
2023/09/03 12:48:33;;;;;;;2.00;1.80;;;34.80;39.40;;;;;;5008059;28;20440;-46
2023/09/03 12:50:59;;;;;;;3.50;2.10;;;34.80;40.00;;;;;;5009235;28;20484;-46